createdAt,value
2016-11-04T00:02:50.670Z,5.08
2016-11-04T00:06:27.628Z,4.99
2016-11-04T00:10:05.077Z,4.94
2016-11-04T00:13:41.659Z,4.88
2016-11-04T00:17:18.510Z,4.81
2016-11-04T00:21:01.668Z,4.74
2016-11-04T00:24:41.107Z,4.75
2016-11-04T00:28:25.461Z,4.93
2016-11-04T00:36:09.287Z,5.16
2016-11-04T00:39:53.964Z,5.08
2016-11-04T00:43:32.256Z,5.02
2016-11-04T00:47:29.669Z,5.05
2016-11-04T00:51:06.709Z,5.1
2016-11-04T00:54:43.658Z,5.05
2016-11-04T00:58:20.573Z,4.99
2016-11-04T01:01:58.020Z,4.89
2016-11-04T01:05:34.713Z,4.76
2016-11-04T01:09:11.711Z,4.64
2016-11-04T01:12:48.689Z,4.56
2016-11-04T01:16:25.688Z,4.49
2016-11-04T01:20:02.950Z,4.39
2016-11-04T01:23:39.878Z,4.32
2016-11-04T01:27:16.741Z,4.25
2016-11-04T01:30:53.892Z,4.21
2016-11-04T01:38:46.233Z,4.07
2016-11-04T01:42:22.630Z,4.02
2016-11-04T01:45:58.819Z,3.99
2016-11-04T01:49:36.086Z,3.97
2016-11-04T01:53:12.760Z,3.99
2016-11-04T01:56:49.604Z,3.99
2016-11-04T02:00:26.036Z,3.97
2016-11-04T02:04:02.156Z,3.98
2016-11-04T02:07:38.315Z,4.11
2016-11-04T02:11:15.011Z,4.31
2016-11-04T02:14:51.533Z,4.44
2016-11-04T02:18:28.246Z,4.4
2016-11-04T02:22:04.468Z,4.38
2016-11-04T02:25:41.721Z,4.37
2016-11-04T02:34:32.462Z,4.65
2016-11-04T02:38:09.310Z,4.79
2016-11-04T02:41:45.829Z,4.83
2016-11-04T02:45:17.704Z,4.91
2016-11-04T02:48:55.405Z,4.93
2016-11-04T02:52:31.664Z,4.78
2016-11-04T02:56:41.958Z,4.71
2016-11-04T03:00:19.071Z,4.67
2016-11-04T03:03:54.799Z,4.71
2016-11-04T03:07:31.864Z,4.84
2016-11-04T03:11:08.001Z,4.98
2016-11-04T03:14:45.941Z,5.09
2016-11-04T03:18:55.867Z,5.28
2016-11-04T03:22:30.015Z,5.48
2016-11-04T03:26:06.582Z,5.54
2016-11-04T03:29:44.717Z,5.57
2016-11-04T03:33:55.405Z,5.57
2016-11-04T03:41:38.050Z,5.48
2016-11-04T03:45:14.550Z,5.54
2016-11-04T03:48:50.656Z,5.5
2016-11-04T03:52:28.665Z,5.36
2016-11-04T03:56:05.396Z,5.22
2016-11-04T03:59:42.418Z,5
2016-11-04T04:03:28.270Z,4.79
2016-11-04T04:07:05.208Z,4.67
2016-11-04T04:10:41.394Z,4.68
2016-11-04T04:14:18.578Z,4.84
2016-11-04T04:17:54.736Z,5.09
2016-11-04T04:21:31.565Z,5.32
2016-11-04T04:25:07.821Z,5.45
2016-11-04T04:28:44.734Z,5.51
2016-11-04T04:32:21.170Z,5.61
2016-11-04T04:35:58.770Z,5.61
2016-11-04T04:39:59.520Z,5.43
2016-11-04T04:43:36.840Z,5.23
2016-11-04T04:47:17.986Z,5.24
2016-11-04T04:50:54.991Z,5.26
2016-11-04T04:54:35.455Z,5.26
2016-11-04T04:58:35.636Z,5.23
2016-11-04T05:02:13.667Z,5.36
2016-11-04T05:05:51.230Z,5.42
2016-11-04T05:09:28.099Z,5.31
2016-11-04T05:13:05.638Z,5.18
2016-11-04T05:16:44.385Z,5.06
2016-11-04T05:20:21.736Z,5.1
2016-11-04T05:23:58.639Z,5.27
2016-11-04T05:27:36.200Z,5.29
2016-11-04T05:31:14.354Z,5.28
2016-11-04T05:34:52.142Z,5.29
2016-11-04T05:38:29.084Z,5.24
2016-11-04T05:42:05.894Z,5.22
2016-11-04T05:45:42.544Z,5.22
2016-11-04T05:49:19.521Z,5.22
2016-11-04T05:52:55.652Z,5.19
2016-11-04T05:56:33.166Z,5.2
2016-11-04T06:00:09.663Z,5.26
2016-11-04T06:03:46.598Z,5.32
2016-11-04T06:07:24.340Z,5.32
2016-11-04T06:11:01.189Z,5.35
2016-11-04T06:14:37.882Z,5.35
2016-11-04T06:18:10.616Z,5.39
2016-11-04T06:21:46.610Z,5.43
2016-11-04T06:25:23.402Z,5.37
2016-11-04T06:29:00.695Z,5.29
2016-11-04T06:32:37.694Z,5.25
2016-11-04T06:36:14.399Z,5.22
2016-11-04T06:39:52.056Z,5.24
2016-11-04T06:43:28.792Z,5.22
2016-11-04T06:47:05.827Z,5.17
2016-11-04T06:50:42.393Z,5.1
2016-11-04T06:54:19.664Z,5.01
2016-11-04T06:57:56.588Z,5.05
2016-11-04T07:01:34.936Z,5.16
2016-11-04T07:05:11.133Z,5.28
2016-11-04T07:08:48.261Z,5.41
2016-11-04T07:12:24.598Z,5.44
2016-11-04T07:16:01.565Z,5.46
2016-11-04T07:54:14.995Z,6.41
2016-11-04T07:58:02.577Z,6.48
2016-11-04T08:01:34.585Z,6.59
2016-11-04T08:04:52.132Z,6.68
2016-11-04T08:08:24.363Z,6.71
2016-11-04T08:11:41.576Z,6.75
2016-11-04T08:15:13.519Z,6.8
2016-11-04T08:18:45.449Z,6.83
2016-11-04T08:22:17.080Z,6.88
2016-11-04T08:25:34.039Z,7.05
2016-11-04T08:29:20.565Z,7.23
2016-11-04T08:33:07.242Z,7.36
2016-11-04T08:36:24.661Z,7.39
2016-11-04T08:39:56.370Z,7.32
2016-11-04T08:43:42.648Z,7.36
2016-11-04T08:51:02.397Z,7.56
2016-11-04T08:58:20.981Z,7.6
2016-11-04T09:02:22.257Z,7.68
2016-11-04T09:05:39.066Z,7.86
2016-11-04T09:08:56.361Z,8.01
2016-11-04T09:12:13.625Z,8.17
2016-11-04T09:15:30.963Z,8.21
2016-11-04T09:18:48.247Z,8.26
2016-11-04T09:22:20.678Z,8.31
2016-11-04T09:25:37.886Z,8.31
2016-11-04T09:28:55.071Z,8.42
2016-11-04T09:32:12.469Z,8.46
2016-11-04T09:39:30.769Z,8.64
2016-11-04T09:42:47.792Z,8.74
2016-11-04T09:46:05.450Z,8.88
2016-11-04T09:49:23.063Z,9.02
2016-11-04T09:52:40.512Z,9.08
2016-11-04T09:55:57.222Z,9.19
2016-11-04T09:59:15.472Z,9.29
2016-11-04T10:02:32.728Z,9.46
2016-11-04T10:05:49.577Z,9.54
2016-11-04T10:09:06.920Z,9.57
2016-11-04T10:12:23.513Z,9.55
2016-11-04T10:15:41.472Z,9.54
2016-11-04T10:18:59.181Z,9.68
2016-11-04T10:22:16.493Z,9.75
2016-11-04T10:25:33.493Z,9.75
2016-11-04T10:28:50.414Z,9.69
2016-11-04T10:32:07.342Z,9.68
2016-11-04T10:35:24.942Z,9.69
2016-11-04T10:38:41.500Z,9.74
2016-11-04T10:41:58.276Z,9.81
2016-11-04T10:45:15.383Z,9.88
2016-11-04T10:48:32.731Z,10.01
2016-11-04T10:51:49.683Z,9.99
2016-11-04T10:55:06.410Z,9.92
2016-11-04T10:58:23.485Z,9.97
2016-11-04T11:01:40.383Z,10.03
2016-11-04T11:04:57.527Z,10.16
2016-11-04T11:08:14.329Z,10.19
2016-11-04T11:11:31.475Z,10.19
2016-11-04T11:14:48.390Z,10.23
2016-11-04T11:18:05.458Z,10.29
2016-11-04T11:21:22.456Z,10.39
2016-11-04T11:24:39.286Z,10.44
2016-11-04T11:27:56.464Z,10.44
2016-11-04T11:31:12.760Z,10.49
2016-11-04T11:34:29.931Z,10.68
2016-11-04T11:37:46.576Z,10.85
2016-11-04T11:41:03.314Z,10.9
2016-11-04T11:44:20.306Z,10.92
2016-11-04T11:47:37.586Z,10.9
2016-11-04T11:50:54.205Z,10.87
2016-11-04T11:54:11.113Z,10.86
2016-11-04T11:57:28.337Z,10.8
2016-11-04T12:00:45.159Z,10.82
2016-11-04T12:04:02.140Z,10.9
2016-11-04T12:07:19.450Z,10.89
2016-11-04T12:10:36.445Z,10.79
2016-11-04T12:13:53.348Z,10.63
2016-11-04T12:17:10.116Z,10.51
2016-11-04T12:20:41.911Z,10.49
2016-11-04T12:23:58.470Z,10.62
2016-11-04T12:27:16.431Z,10.73
2016-11-04T12:30:33.081Z,10.78
2016-11-04T12:33:50.232Z,10.76
2016-11-04T12:37:06.948Z,10.7
2016-11-04T12:40:24.712Z,10.83
2016-11-04T12:43:41.222Z,10.99
2016-11-04T12:46:58.742Z,11.08
2016-11-04T12:54:32.620Z,11.34
2016-11-04T12:57:49.558Z,11.42
2016-11-04T13:04:54.482Z,11.38
2016-11-04T13:08:11.519Z,11.42
2016-11-04T13:11:28.468Z,11.44
2016-11-04T13:14:46.340Z,11.44
2016-11-04T13:29:01.445Z,11.42
2016-11-04T13:32:48.118Z,11.31
2016-11-04T13:36:19.852Z,11.25
2016-11-04T13:39:37.309Z,11.22
2016-11-04T13:42:53.811Z,11.24
2016-11-04T13:46:10.930Z,11.27
2016-11-04T13:49:27.637Z,11.28
2016-11-04T13:52:59.267Z,11.26
2016-11-04T13:57:00.350Z,11.26
2016-11-04T14:00:17.857Z,11.24
2016-11-04T14:03:35.064Z,11.24
2016-11-04T14:06:52.476Z,11.24
2016-11-04T14:10:09.485Z,11.2
2016-11-04T14:13:26.241Z,11.12
2016-11-04T14:16:44.039Z,11.06
2016-11-04T14:20:01.144Z,11.05
2016-11-04T14:23:18.582Z,11.09
2016-11-04T14:26:35.776Z,11.11
2016-11-04T14:29:53.200Z,11.1
2016-11-04T14:33:10.399Z,11.08
2016-11-04T14:36:27.160Z,11.11
2016-11-04T14:39:44.058Z,11.08
2016-11-04T14:43:01.017Z,11.09
2016-11-04T14:46:18.508Z,11.09
2016-11-04T14:49:35.214Z,11.09
2016-11-04T14:52:52.720Z,11.09
2016-11-04T14:56:09.866Z,11.04
2016-11-04T14:59:28.248Z,11.03
2016-11-04T15:02:45.233Z,10.95
2016-11-04T15:06:02.658Z,10.89
2016-11-04T15:09:19.433Z,10.87
2016-11-04T15:12:36.712Z,10.83
2016-11-04T15:15:53.610Z,10.81
2016-11-04T15:19:10.762Z,10.81
2016-11-04T15:22:42.767Z,10.81
2016-11-04T15:26:29.079Z,10.7
2016-11-04T15:29:46.175Z,10.56
2016-11-04T15:37:05.047Z,10.39
2016-11-04T15:40:51.402Z,10.33
2016-11-04T15:44:08.748Z,10.24
2016-11-04T15:47:25.656Z,10.18
2016-11-04T15:50:42.628Z,10.18
2016-11-04T15:54:00.036Z,10.19
2016-11-04T15:57:20.992Z,10.18
2016-11-04T16:00:39.818Z,10.15
2016-11-04T16:03:57.725Z,10.09
2016-11-04T16:37:06.664Z,9.81
2016-11-04T16:40:43.913Z,9.76
2016-11-04T16:44:43.002Z,9.73
2016-11-04T16:48:20.468Z,9.88
2016-11-04T16:51:57.169Z,10.02
2016-11-04T16:55:33.894Z,10.18
2016-11-04T16:59:11.501Z,10.23
2016-11-04T17:02:48.107Z,10.22
2016-11-04T17:06:24.499Z,10.16
2016-11-04T17:10:02.273Z,10.17
2016-11-04T17:13:38.876Z,10.15
2016-11-04T17:17:15.284Z,10.05
2016-11-04T17:20:52.360Z,10.03
2016-11-04T17:24:31.166Z,10.06
2016-11-04T17:28:38.216Z,10.08
2016-11-04T17:33:19.716Z,9.99
2016-11-04T17:36:56.679Z,9.86
2016-11-04T17:40:33.271Z,9.77
2016-11-04T17:44:09.677Z,9.76
2016-11-04T17:51:52.824Z,9.62
2016-11-04T17:55:28.984Z,9.63
2016-11-04T17:59:06.388Z,9.68
2016-11-04T18:02:42.483Z,9.63
2016-11-04T18:06:19.504Z,9.58
2016-11-04T18:09:56.019Z,9.51
2016-11-04T18:13:33.091Z,9.57
2016-11-04T18:17:16.694Z,9.63
2016-11-04T18:32:48.550Z,9.83
2016-11-04T18:36:53.984Z,9.78
2016-11-04T18:41:28.540Z,9.72
2016-11-04T18:45:06.580Z,9.6
2016-11-04T18:48:42.617Z,9.58
2016-11-04T18:52:18.679Z,9.62
2016-11-04T18:55:54.617Z,9.7
2016-11-04T18:59:31.471Z,9.75
2016-11-04T19:03:08.182Z,9.87
2016-11-04T19:15:32.451Z,9.99
2016-11-04T19:19:08.438Z,9.93
2016-11-04T19:22:45.603Z,9.84
2016-11-04T19:26:22.564Z,9.81
2016-11-04T19:29:59.065Z,9.74
2016-11-04T19:33:36.493Z,9.91
2016-11-04T19:37:14.378Z,9.95
2016-11-04T19:40:51.028Z,9.92
2016-11-04T19:44:26.864Z,9.93
2016-11-04T19:48:03.486Z,9.98
2016-11-04T19:51:40.704Z,9.99
2016-11-04T19:55:17.208Z,9.96
2016-11-04T19:58:54.297Z,9.97
2016-11-04T20:02:30.964Z,9.95
2016-11-04T20:06:08.059Z,9.96
2016-11-04T20:09:45.027Z,10.04
2016-11-04T20:13:22.302Z,10.16
2016-11-04T20:17:02.866Z,10.24
2016-11-04T20:20:38.490Z,10.28
2016-11-04T20:24:15.685Z,10.22
2016-11-04T20:27:50.502Z,10.19
2016-11-04T20:31:37.853Z,10.13
2016-11-04T20:35:37.341Z,10.18
2016-11-04T20:39:13.902Z,10.17
2016-11-04T20:42:51.094Z,10.18
2016-11-04T20:46:28.286Z,10.19
2016-11-04T20:56:47.196Z,10.11
2016-11-04T21:00:24.002Z,10.01
2016-11-04T21:04:00.704Z,9.96
2016-11-04T21:12:14.622Z,9.9
2016-11-04T21:15:50.996Z,9.91
2016-11-04T21:19:35.318Z,9.91
2016-11-04T21:23:40.822Z,9.96
2016-11-04T21:27:13.282Z,9.99
2016-11-04T21:30:50.017Z,9.93
2016-11-04T21:34:26.552Z,9.83
2016-11-04T21:38:03.304Z,9.77
2016-11-04T21:45:52.173Z,9.73
2016-11-04T21:49:29.970Z,9.79
2016-11-04T21:53:06.061Z,9.8
2016-11-04T22:26:25.792Z,9.71
2016-11-04T22:30:03.370Z,9.58
2016-11-04T22:43:32.337Z,9.29
2016-11-04T22:46:49.264Z,9.3
2016-11-04T22:50:06.467Z,9.3
2016-11-04T22:53:23.478Z,9.3
2016-11-04T22:56:40.641Z,9.35
2016-11-04T22:59:58.105Z,9.39
2016-11-04T23:03:14.880Z,9.38
2016-11-04T23:06:32.193Z,9.37
2016-11-04T23:09:48.599Z,9.38
2016-11-04T23:13:07.256Z,9.45
2016-11-04T23:16:24.325Z,9.54
2016-11-04T23:19:41.732Z,9.62
2016-11-04T23:22:58.417Z,9.66
2016-11-04T23:26:15.871Z,9.65
2016-11-04T23:29:32.569Z,9.65
2016-11-04T23:32:49.679Z,9.63
2016-11-04T23:36:06.333Z,9.51
2016-11-04T23:39:23.043Z,9.34
2016-11-04T23:42:40.161Z,9.25
2016-11-04T23:45:56.880Z,9.26
2016-11-04T23:49:13.276Z,9.31
2016-11-04T23:52:30.620Z,9.38
2016-11-04T23:55:46.983Z,9.45
2016-11-04T23:59:04.368Z,9.51
